sensor_id;sensor_type;location;lat;lon;timestamp;P1;durP1;ratioP1;P2;durP2;ratioP2
43014;SDS011;28637;50.554;7.032;2022-12-18T00:00:51;15.52;;;5.78;;
43014;SDS011;28637;50.554;7.032;2022-12-18T00:05:52;17.10;;;6.13;;
43014;SDS011;28637;50.554;7.032;2022-12-18T00:15:54;11.87;;;5.57;;
43014;SDS011;28637;50.554;7.032;2022-12-18T00:20:57;13.30;;;4.93;;
43014;SDS011;28637;50.554;7.032;2022-12-18T00:26:00;18.58;;;7.47;;
43014;SDS011;28637;50.554;7.032;2022-12-18T00:31:03;17.00;;;6.45;;
43014;SDS011;28637;50.554;7.032;2022-12-18T00:36:09;13.32;;;5.70;;
43014;SDS011;28637;50.554;7.032;2022-12-18T00:41:15;11.52;;;5.22;;
43014;SDS011;28637;50.554;7.032;2022-12-18T00:46:38;9.68;;;4.30;;
43014;SDS011;28637;50.554;7.032;2022-12-18T00:51:41;11.73;;;4.50;;
43014;SDS011;28637;50.554;7.032;2022-12-18T00:56:42;13.05;;;5.03;;
43014;SDS011;28637;50.554;7.032;2022-12-18T01:01:43;15.38;;;5.75;;
43014;SDS011;28637;50.554;7.032;2022-12-18T01:06:44;17.30;;;5.28;;
43014;SDS011;28637;50.554;7.032;2022-12-18T01:11:53;14.65;;;5.68;;
43014;SDS011;28637;50.554;7.032;2022-12-18T01:16:54;14.45;;;5.50;;
43014;SDS011;28637;50.554;7.032;2022-12-18T01:21:55;15.57;;;5.77;;
43014;SDS011;28637;50.554;7.032;2022-12-18T01:26:56;13.48;;;5.57;;
43014;SDS011;28637;50.554;7.032;2022-12-18T01:31:57;14.20;;;5.00;;
43014;SDS011;28637;50.554;7.032;2022-12-18T01:36:58;13.18;;;4.75;;
43014;SDS011;28637;50.554;7.032;2022-12-18T01:41:59;10.60;;;4.97;;
43014;SDS011;28637;50.554;7.032;2022-12-18T01:47:05;10.98;;;4.18;;
43014;SDS011;28637;50.554;7.032;2022-12-18T01:52:05;13.43;;;5.60;;
43014;SDS011;28637;50.554;7.032;2022-12-18T01:57:06;14.17;;;5.27;;
43014;SDS011;28637;50.554;7.032;2022-12-18T02:02:07;15.85;;;6.00;;
43014;SDS011;28637;50.554;7.032;2022-12-18T02:12:18;16.10;;;6.03;;
43014;SDS011;28637;50.554;7.032;2022-12-18T02:17:22;20.75;;;6.53;;
43014;SDS011;28637;50.554;7.032;2022-12-18T02:28:04;20.30;;;6.53;;
43014;SDS011;28637;50.554;7.032;2022-12-18T02:33:09;19.73;;;6.05;;
43014;SDS011;28637;50.554;7.032;2022-12-18T02:38:12;15.18;;;5.30;;
43014;SDS011;28637;50.554;7.032;2022-12-18T02:43:15;12.20;;;3.92;;
43014;SDS011;28637;50.554;7.032;2022-12-18T02:48:17;11.45;;;4.57;;
43014;SDS011;28637;50.554;7.032;2022-12-18T02:53:24;12.48;;;5.55;;
43014;SDS011;28637;50.554;7.032;2022-12-18T03:03:55;16.50;;;6.78;;
43014;SDS011;28637;50.554;7.032;2022-12-18T03:09:10;16.77;;;6.63;;
43014;SDS011;28637;50.554;7.032;2022-12-18T03:14:18;16.30;;;6.43;;
43014;SDS011;28637;50.554;7.032;2022-12-18T03:19:21;17.48;;;6.18;;
43014;SDS011;28637;50.554;7.032;2022-12-18T03:24:26;23.45;;;7.75;;
43014;SDS011;28637;50.554;7.032;2022-12-18T03:29:40;22.70;;;7.45;;
43014;SDS011;28637;50.554;7.032;2022-12-18T03:34:49;22.08;;;7.53;;
43014;SDS011;28637;50.554;7.032;2022-12-18T03:39:51;21.13;;;6.70;;
43014;SDS011;28637;50.554;7.032;2022-12-18T03:55:30;15.45;;;5.95;;
43014;SDS011;28637;50.554;7.032;2022-12-18T04:00:34;15.70;;;6.70;;
43014;SDS011;28637;50.554;7.032;2022-12-18T04:05:35;18.33;;;6.93;;
43014;SDS011;28637;50.554;7.032;2022-12-18T04:10:37;21.90;;;7.30;;
43014;SDS011;28637;50.554;7.032;2022-12-18T04:15:38;17.07;;;6.60;;
43014;SDS011;28637;50.554;7.032;2022-12-18T04:20:39;14.68;;;6.38;;
43014;SDS011;28637;50.554;7.032;2022-12-18T04:25:40;22.00;;;6.97;;
43014;SDS011;28637;50.554;7.032;2022-12-18T04:30:40;18.30;;;6.67;;
43014;SDS011;28637;50.554;7.032;2022-12-18T04:35:41;16.80;;;6.43;;
43014;SDS011;28637;50.554;7.032;2022-12-18T04:40:42;19.13;;;6.90;;
43014;SDS011;28637;50.554;7.032;2022-12-18T04:45:43;18.77;;;6.70;;
43014;SDS011;28637;50.554;7.032;2022-12-18T04:50:44;15.10;;;5.90;;
43014;SDS011;28637;50.554;7.032;2022-12-18T04:55:44;17.43;;;6.13;;
43014;SDS011;28637;50.554;7.032;2022-12-18T05:00:45;19.73;;;6.33;;
43014;SDS011;28637;50.554;7.032;2022-12-18T05:05:48;18.33;;;7.27;;
43014;SDS011;28637;50.554;7.032;2022-12-18T05:10:57;16.75;;;6.57;;
43014;SDS011;28637;50.554;7.032;2022-12-18T05:15:59;20.95;;;6.60;;
43014;SDS011;28637;50.554;7.032;2022-12-18T05:21:00;14.23;;;5.82;;
43014;SDS011;28637;50.554;7.032;2022-12-18T05:26:03;16.00;;;6.53;;
43014;SDS011;28637;50.554;7.032;2022-12-18T05:31:05;15.95;;;6.03;;
43014;SDS011;28637;50.554;7.032;2022-12-18T05:36:06;16.90;;;6.43;;
43014;SDS011;28637;50.554;7.032;2022-12-18T05:41:08;13.27;;;5.45;;
43014;SDS011;28637;50.554;7.032;2022-12-18T05:46:13;16.80;;;6.28;;
43014;SDS011;28637;50.554;7.032;2022-12-18T05:51:19;16.85;;;6.47;;
43014;SDS011;28637;50.554;7.032;2022-12-18T05:56:21;15.10;;;6.63;;
43014;SDS011;28637;50.554;7.032;2022-12-18T06:01:24;18.80;;;5.93;;
43014;SDS011;28637;50.554;7.032;2022-12-18T06:06:26;19.17;;;6.82;;
43014;SDS011;28637;50.554;7.032;2022-12-18T06:16:28;19.77;;;6.27;;
43014;SDS011;28637;50.554;7.032;2022-12-18T06:21:29;17.52;;;6.68;;
43014;SDS011;28637;50.554;7.032;2022-12-18T06:26:31;20.02;;;6.75;;
43014;SDS011;28637;50.554;7.032;2022-12-18T06:31:32;17.17;;;6.50;;
43014;SDS011;28637;50.554;7.032;2022-12-18T06:36:33;17.80;;;6.60;;
43014;SDS011;28637;50.554;7.032;2022-12-18T06:41:33;16.93;;;5.77;;
43014;SDS011;28637;50.554;7.032;2022-12-18T06:46:34;13.83;;;6.03;;
43014;SDS011;28637;50.554;7.032;2022-12-18T06:51:35;15.30;;;6.53;;
43014;SDS011;28637;50.554;7.032;2022-12-18T06:56:36;18.33;;;6.67;;
43014;SDS011;28637;50.554;7.032;2022-12-18T07:01:36;19.90;;;6.13;;
43014;SDS011;28637;50.554;7.032;2022-12-18T07:06:37;17.20;;;6.37;;
43014;SDS011;28637;50.554;7.032;2022-12-18T07:11:38;13.80;;;5.70;;
43014;SDS011;28637;50.554;7.032;2022-12-18T07:16:38;18.90;;;6.77;;
43014;SDS011;28637;50.554;7.032;2022-12-18T07:21:39;17.17;;;6.83;;
43014;SDS011;28637;50.554;7.032;2022-12-18T07:26:40;19.93;;;7.87;;
43014;SDS011;28637;50.554;7.032;2022-12-18T07:31:40;17.20;;;6.60;;
43014;SDS011;28637;50.554;7.032;2022-12-18T07:36:41;17.60;;;5.87;;
43014;SDS011;28637;50.554;7.032;2022-12-18T07:41:42;16.08;;;6.50;;
43014;SDS011;28637;50.554;7.032;2022-12-18T07:46:45;21.35;;;7.13;;
43014;SDS011;28637;50.554;7.032;2022-12-18T07:51:46;17.30;;;6.70;;
43014;SDS011;28637;50.554;7.032;2022-12-18T07:56:49;19.33;;;7.90;;
43014;SDS011;28637;50.554;7.032;2022-12-18T08:01:50;19.23;;;7.28;;
43014;SDS011;28637;50.554;7.032;2022-12-18T08:06:50;26.67;;;10.70;;
43014;SDS011;28637;50.554;7.032;2022-12-18T08:11:51;21.52;;;8.68;;
43014;SDS011;28637;50.554;7.032;2022-12-18T08:16:52;34.00;;;8.83;;
43014;SDS011;28637;50.554;7.032;2022-12-18T08:21:53;27.73;;;8.77;;
43014;SDS011;28637;50.554;7.032;2022-12-18T08:26:53;23.13;;;8.73;;
43014;SDS011;28637;50.554;7.032;2022-12-18T08:31:54;23.20;;;7.90;;
43014;SDS011;28637;50.554;7.032;2022-12-18T08:36:55;23.10;;;8.77;;
43014;SDS011;28637;50.554;7.032;2022-12-18T08:41:55;20.17;;;8.60;;
43014;SDS011;28637;50.554;7.032;2022-12-18T08:47:15;19.25;;;8.18;;
43014;SDS011;28637;50.554;7.032;2022-12-18T08:52:15;19.83;;;7.47;;
43014;SDS011;28637;50.554;7.032;2022-12-18T08:57:16;28.97;;;9.37;;
43014;SDS011;28637;50.554;7.032;2022-12-18T09:02:16;22.37;;;8.03;;
43014;SDS011;28637;50.554;7.032;2022-12-18T09:07:17;21.50;;;8.07;;
43014;SDS011;28637;50.554;7.032;2022-12-18T09:12:18;22.63;;;8.30;;
43014;SDS011;28637;50.554;7.032;2022-12-18T09:17:18;25.93;;;8.47;;
43014;SDS011;28637;50.554;7.032;2022-12-18T09:22:19;25.77;;;9.53;;
43014;SDS011;28637;50.554;7.032;2022-12-18T09:27:19;24.53;;;9.53;;
43014;SDS011;28637;50.554;7.032;2022-12-18T09:32:21;25.30;;;8.97;;
43014;SDS011;28637;50.554;7.032;2022-12-18T09:37:21;27.13;;;9.73;;
43014;SDS011;28637;50.554;7.032;2022-12-18T09:42:22;23.90;;;9.10;;
43014;SDS011;28637;50.554;7.032;2022-12-18T09:47:27;21.83;;;8.87;;
43014;SDS011;28637;50.554;7.032;2022-12-18T09:52:34;26.48;;;10.05;;
43014;SDS011;28637;50.554;7.032;2022-12-18T09:57:41;27.75;;;10.02;;
43014;SDS011;28637;50.554;7.032;2022-12-18T10:02:48;29.75;;;10.40;;
43014;SDS011;28637;50.554;7.032;2022-12-18T10:13:04;26.08;;;10.75;;
43014;SDS011;28637;50.554;7.032;2022-12-18T10:29:42;28.75;;;10.65;;
43014;SDS011;28637;50.554;7.032;2022-12-18T10:34:47;28.25;;;10.68;;
43014;SDS011;28637;50.554;7.032;2022-12-18T10:55:35;27.60;;;10.52;;
43014;SDS011;28637;50.554;7.032;2022-12-18T11:00:39;25.20;;;10.27;;
43014;SDS011;28637;50.554;7.032;2022-12-18T11:05:40;25.17;;;10.83;;
43014;SDS011;28637;50.554;7.032;2022-12-18T11:10:40;27.67;;;11.37;;
43014;SDS011;28637;50.554;7.032;2022-12-18T11:15:47;25.77;;;10.77;;
43014;SDS011;28637;50.554;7.032;2022-12-18T11:20:58;26.30;;;11.10;;
43014;SDS011;28637;50.554;7.032;2022-12-18T11:26:05;27.50;;;10.38;;
43014;SDS011;28637;50.554;7.032;2022-12-18T11:36:38;26.17;;;10.65;;
43014;SDS011;28637;50.554;7.032;2022-12-18T11:41:52;23.60;;;11.15;;
43014;SDS011;28637;50.554;7.032;2022-12-18T11:52:26;28.00;;;11.60;;
43014;SDS011;28637;50.554;7.032;2022-12-18T12:13:51;26.58;;;11.95;;
43014;SDS011;28637;50.554;7.032;2022-12-18T12:24:37;30.58;;;12.77;;
43014;SDS011;28637;50.554;7.032;2022-12-18T12:40:27;28.33;;;12.93;;
43014;SDS011;28637;50.554;7.032;2022-12-18T12:45:34;42.78;;;16.48;;
43014;SDS011;28637;50.554;7.032;2022-12-18T12:50:43;31.15;;;12.13;;
43014;SDS011;28637;50.554;7.032;2022-12-18T12:55:45;30.98;;;12.90;;
43014;SDS011;28637;50.554;7.032;2022-12-18T13:01:21;42.10;;;19.03;;
43014;SDS011;28637;50.554;7.032;2022-12-18T13:22:28;41.65;;;16.58;;
43014;SDS011;28637;50.554;7.032;2022-12-18T13:32:43;32.37;;;13.37;;
43014;SDS011;28637;50.554;7.032;2022-12-18T13:37:45;35.20;;;14.03;;
43014;SDS011;28637;50.554;7.032;2022-12-18T13:42:52;29.63;;;11.93;;
43014;SDS011;28637;50.554;7.032;2022-12-18T13:48:19;32.45;;;13.20;;
43014;SDS011;28637;50.554;7.032;2022-12-18T13:53:24;28.77;;;11.88;;
43014;SDS011;28637;50.554;7.032;2022-12-18T13:58:27;28.70;;;12.02;;
43014;SDS011;28637;50.554;7.032;2022-12-18T14:03:28;29.70;;;12.73;;
43014;SDS011;28637;50.554;7.032;2022-12-18T14:08:33;49.47;;;20.75;;
43014;SDS011;28637;50.554;7.032;2022-12-18T14:13:40;30.02;;;12.32;;
43014;SDS011;28637;50.554;7.032;2022-12-18T14:18:44;31.60;;;12.25;;
43014;SDS011;28637;50.554;7.032;2022-12-18T14:23:47;34.15;;;13.02;;
43014;SDS011;28637;50.554;7.032;2022-12-18T14:28:48;29.70;;;13.13;;
43014;SDS011;28637;50.554;7.032;2022-12-18T14:33:49;32.25;;;13.93;;
43014;SDS011;28637;50.554;7.032;2022-12-18T14:38:51;33.60;;;12.70;;
43014;SDS011;28637;50.554;7.032;2022-12-18T14:44:04;35.38;;;15.63;;
43014;SDS011;28637;50.554;7.032;2022-12-18T14:54:28;40.80;;;15.07;;
43014;SDS011;28637;50.554;7.032;2022-12-18T14:59:31;41.53;;;15.77;;
43014;SDS011;28637;50.554;7.032;2022-12-18T15:04:37;39.88;;;15.45;;
43014;SDS011;28637;50.554;7.032;2022-12-18T15:09:41;44.17;;;16.35;;
43014;SDS011;28637;50.554;7.032;2022-12-18T15:14:43;43.20;;;15.70;;
43014;SDS011;28637;50.554;7.032;2022-12-18T15:19:44;35.43;;;14.07;;
43014;SDS011;28637;50.554;7.032;2022-12-18T15:30:03;36.30;;;12.57;;
43014;SDS011;28637;50.554;7.032;2022-12-18T15:35:20;36.72;;;13.32;;
43014;SDS011;28637;50.554;7.032;2022-12-18T15:40:24;31.35;;;12.30;;
43014;SDS011;28637;50.554;7.032;2022-12-18T15:50:27;31.73;;;12.20;;
43014;SDS011;28637;50.554;7.032;2022-12-18T15:55:28;33.13;;;12.00;;
43014;SDS011;28637;50.554;7.032;2022-12-18T16:00:47;34.78;;;12.55;;
43014;SDS011;28637;50.554;7.032;2022-12-18T16:05:48;32.77;;;12.73;;
43014;SDS011;28637;50.554;7.032;2022-12-18T16:10:48;35.57;;;13.13;;
43014;SDS011;28637;50.554;7.032;2022-12-18T16:15:49;41.13;;;14.00;;
43014;SDS011;28637;50.554;7.032;2022-12-18T16:20:50;34.17;;;13.47;;
43014;SDS011;28637;50.554;7.032;2022-12-18T16:25:51;35.67;;;13.40;;
43014;SDS011;28637;50.554;7.032;2022-12-18T16:30:51;35.33;;;13.17;;
43014;SDS011;28637;50.554;7.032;2022-12-18T16:35:52;33.63;;;12.80;;
43014;SDS011;28637;50.554;7.032;2022-12-18T16:40:53;36.43;;;13.97;;
43014;SDS011;28637;50.554;7.032;2022-12-18T16:46:12;36.53;;;13.15;;
43014;SDS011;28637;50.554;7.032;2022-12-18T16:51:13;38.83;;;14.37;;
43014;SDS011;28637;50.554;7.032;2022-12-18T16:56:14;39.57;;;14.23;;
43014;SDS011;28637;50.554;7.032;2022-12-18T17:01:15;32.70;;;13.27;;
43014;SDS011;28637;50.554;7.032;2022-12-18T17:06:17;38.37;;;15.43;;
43014;SDS011;28637;50.554;7.032;2022-12-18T17:16:18;39.00;;;14.13;;
43014;SDS011;28637;50.554;7.032;2022-12-18T17:21:19;40.37;;;14.43;;
43014;SDS011;28637;50.554;7.032;2022-12-18T17:26:19;45.20;;;17.20;;
43014;SDS011;28637;50.554;7.032;2022-12-18T17:31:21;40.50;;;14.27;;
43014;SDS011;28637;50.554;7.032;2022-12-18T17:36:22;34.33;;;12.93;;
43014;SDS011;28637;50.554;7.032;2022-12-18T17:41:25;35.67;;;13.82;;
43014;SDS011;28637;50.554;7.032;2022-12-18T17:46:27;51.72;;;18.63;;
43014;SDS011;28637;50.554;7.032;2022-12-18T17:51:29;46.10;;;16.15;;
43014;SDS011;28637;50.554;7.032;2022-12-18T17:56:30;37.40;;;15.70;;
43014;SDS011;28637;50.554;7.032;2022-12-18T18:01:31;36.80;;;14.75;;
43014;SDS011;28637;50.554;7.032;2022-12-18T18:06:32;39.03;;;13.97;;
43014;SDS011;28637;50.554;7.032;2022-12-18T18:11:33;40.57;;;15.80;;
43014;SDS011;28637;50.554;7.032;2022-12-18T18:16:52;38.75;;;15.05;;
43014;SDS011;28637;50.554;7.032;2022-12-18T18:21:53;40.63;;;14.50;;
43014;SDS011;28637;50.554;7.032;2022-12-18T18:26:53;36.37;;;14.87;;
43014;SDS011;28637;50.554;7.032;2022-12-18T18:31:54;39.27;;;14.47;;
43014;SDS011;28637;50.554;7.032;2022-12-18T18:36:55;36.58;;;14.65;;
43014;SDS011;28637;50.554;7.032;2022-12-18T18:41:58;41.95;;;14.43;;
43014;SDS011;28637;50.554;7.032;2022-12-18T18:46:59;42.43;;;16.20;;
43014;SDS011;28637;50.554;7.032;2022-12-18T18:52:00;40.67;;;15.43;;
43014;SDS011;28637;50.554;7.032;2022-12-18T18:57:01;39.83;;;15.40;;
43014;SDS011;28637;50.554;7.032;2022-12-18T19:02:02;41.17;;;14.90;;
43014;SDS011;28637;50.554;7.032;2022-12-18T19:07:03;38.90;;;14.63;;
43014;SDS011;28637;50.554;7.032;2022-12-18T19:12:05;38.70;;;14.70;;
43014;SDS011;28637;50.554;7.032;2022-12-18T19:17:24;39.88;;;14.40;;
43014;SDS011;28637;50.554;7.032;2022-12-18T19:22:25;45.50;;;16.83;;
43014;SDS011;28637;50.554;7.032;2022-12-18T19:27:25;43.03;;;15.67;;
43014;SDS011;28637;50.554;7.032;2022-12-18T19:32:26;43.77;;;16.77;;
43014;SDS011;28637;50.554;7.032;2022-12-18T19:37:27;39.93;;;15.37;;
43014;SDS011;28637;50.554;7.032;2022-12-18T19:42:28;44.43;;;14.80;;
43014;SDS011;28637;50.554;7.032;2022-12-18T19:47:28;37.97;;;15.47;;
43014;SDS011;28637;50.554;7.032;2022-12-18T19:52:29;36.30;;;14.87;;
43014;SDS011;28637;50.554;7.032;2022-12-18T19:57:30;48.67;;;19.30;;
43014;SDS011;28637;50.554;7.032;2022-12-18T20:02:31;38.23;;;14.93;;
43014;SDS011;28637;50.554;7.032;2022-12-18T20:07:35;39.45;;;14.90;;
43014;SDS011;28637;50.554;7.032;2022-12-18T20:12:36;44.77;;;16.00;;
43014;SDS011;28637;50.554;7.032;2022-12-18T20:17:38;35.28;;;14.75;;
43014;SDS011;28637;50.554;7.032;2022-12-18T20:22:38;35.27;;;13.33;;
43014;SDS011;28637;50.554;7.032;2022-12-18T20:27:39;36.17;;;13.33;;
43014;SDS011;28637;50.554;7.032;2022-12-18T20:32:39;34.93;;;13.37;;
43014;SDS011;28637;50.554;7.032;2022-12-18T20:37:40;39.90;;;16.27;;
43014;SDS011;28637;50.554;7.032;2022-12-18T20:42:42;41.08;;;14.90;;
43014;SDS011;28637;50.554;7.032;2022-12-18T20:47:43;39.20;;;16.08;;
43014;SDS011;28637;50.554;7.032;2022-12-18T20:52:44;41.13;;;15.73;;
43014;SDS011;28637;50.554;7.032;2022-12-18T20:57:46;42.70;;;15.15;;
43014;SDS011;28637;50.554;7.032;2022-12-18T21:02:48;40.13;;;14.43;;
43014;SDS011;28637;50.554;7.032;2022-12-18T21:07:49;40.13;;;16.30;;
43014;SDS011;28637;50.554;7.032;2022-12-18T21:12:50;38.90;;;15.57;;
43014;SDS011;28637;50.554;7.032;2022-12-18T21:17:50;45.97;;;17.10;;
43014;SDS011;28637;50.554;7.032;2022-12-18T21:22:51;38.63;;;14.57;;
43014;SDS011;28637;50.554;7.032;2022-12-18T21:27:51;40.45;;;14.35;;
43014;SDS011;28637;50.554;7.032;2022-12-18T21:32:53;35.00;;;14.30;;
43014;SDS011;28637;50.554;7.032;2022-12-18T21:37:53;34.53;;;13.55;;
43014;SDS011;28637;50.554;7.032;2022-12-18T21:42:54;42.27;;;14.50;;
43014;SDS011;28637;50.554;7.032;2022-12-18T21:48:13;37.58;;;14.52;;
43014;SDS011;28637;50.554;7.032;2022-12-18T21:53:14;41.00;;;16.30;;
43014;SDS011;28637;50.554;7.032;2022-12-18T21:58:14;37.67;;;14.00;;
43014;SDS011;28637;50.554;7.032;2022-12-18T22:03:15;35.47;;;13.67;;
43014;SDS011;28637;50.554;7.032;2022-12-18T22:08:17;38.95;;;14.80;;
43014;SDS011;28637;50.554;7.032;2022-12-18T22:13:17;41.33;;;14.73;;
43014;SDS011;28637;50.554;7.032;2022-12-18T22:18:18;35.67;;;14.07;;
43014;SDS011;28637;50.554;7.032;2022-12-18T22:28:20;38.47;;;13.07;;
43014;SDS011;28637;50.554;7.032;2022-12-18T22:33:40;37.53;;;14.10;;
43014;SDS011;28637;50.554;7.032;2022-12-18T22:38:41;39.93;;;16.90;;
43014;SDS011;28637;50.554;7.032;2022-12-18T22:43:41;34.30;;;14.17;;
43014;SDS011;28637;50.554;7.032;2022-12-18T22:48:42;37.95;;;14.70;;
43014;SDS011;28637;50.554;7.032;2022-12-18T22:53:43;39.43;;;14.27;;
43014;SDS011;28637;50.554;7.032;2022-12-18T22:58:48;38.03;;;12.52;;
43014;SDS011;28637;50.554;7.032;2022-12-18T23:03:50;32.92;;;13.00;;
43014;SDS011;28637;50.554;7.032;2022-12-18T23:08:53;36.97;;;13.43;;
43014;SDS011;28637;50.554;7.032;2022-12-18T23:13:55;31.17;;;13.15;;
43014;SDS011;28637;50.554;7.032;2022-12-18T23:18:55;36.03;;;13.63;;
43014;SDS011;28637;50.554;7.032;2022-12-18T23:23:56;32.80;;;13.30;;
43014;SDS011;28637;50.554;7.032;2022-12-18T23:28:57;35.00;;;13.55;;
43014;SDS011;28637;50.554;7.032;2022-12-18T23:33:58;33.38;;;13.50;;
43014;SDS011;28637;50.554;7.032;2022-12-18T23:44:00;31.95;;;11.82;;
43014;SDS011;28637;50.554;7.032;2022-12-18T23:49:01;32.87;;;12.83;;
43014;SDS011;28637;50.554;7.032;2022-12-18T23:59:03;32.40;;;12.05;;
